Time;durP1;ratioP1;P1;durP2;ratioP2;P2;SDS_P1;SDS_P2;PMS_P1;PMS_P2;Temp;Humidity;BMP_temperature;BMP_pressure;BME280_temperature;BME280_humidity;BME280_pressure;Samples;Min_cycle;Max_cycle;Signal;HPM_P1;HPM_P2
2024/03/02 00:01:35;;;;;;;25.33;16.67;;;;;;;;;;5013236;28;20217;-86
2024/03/02 00:04:03;;;;;;;26.10;15.37;;;;;;;;;;5017340;28;20986;-85
2024/03/02 00:06:29;;;;;;;22.00;13.53;;;;;;;;;;5013307;28;20418;-86
2024/03/02 00:08:58;;;;;;;24.80;15.60;;;;;;;;;;5013648;28;20426;-87
2024/03/02 00:11:24;;;;;;;30.83;17.47;;;;;;;;;;5013925;28;20410;-88
2024/03/02 00:13:53;;;;;;;27.27;17.20;;;;;;;;;;5013746;28;20414;-88
2024/03/02 00:16:20;;;;;;;29.13;18.90;;;;;;;;;;5021221;28;20418;-86
2024/03/02 00:18:46;;;;;;;27.50;17.37;;;;;;;;;;5032085;28;20823;-88
2024/03/02 00:21:14;;;;;;;30.33;17.90;;;;;;;;;;5032258;28;20444;-83
2024/03/02 00:23:41;;;;;;;29.43;18.13;;;;;;;;;;5032470;28;20946;-80
2024/03/02 00:26:08;;;;;;;32.03;19.13;;;;;;;;;;5032905;28;20413;-81
2024/03/02 00:28:35;;;;;;;30.77;18.30;;;;;;;;;;5033080;28;20404;-81
2024/03/02 00:31:07;;;;;;;29.17;18.80;;;;;;;;;;5032804;28;20426;-80
2024/03/02 00:33:35;;;;;;;32.73;20.20;;;;;;;;;;5031260;28;20965;-85
2024/03/02 00:36:03;;;;;;;34.70;20.97;;;;;;;;;;5032352;28;20427;-83
2024/03/02 00:38:29;;;;;;;28.30;18.67;;;;;;;;;;5035531;28;20478;-86
2024/03/02 00:40:56;;;;;;;33.20;20.77;;;;;;;;;;5036339;28;20969;-86
2024/03/02 00:43:40;;;;;;;31.10;19.13;;;;;;;;;;5036372;28;20848;-81
2024/03/02 00:46:06;;;;;;;31.03;19.23;;;;;;;;;;5034751;28;20493;-81
2024/03/02 00:48:35;;;;;;;30.87;20.43;;;;;;;;;;5036098;28;20909;-82
2024/03/02 00:51:03;;;;;;;34.83;20.13;;;;;;;;;;5035777;28;20437;-82
2024/03/02 00:53:30;;;;;;;34.50;20.20;;;;;;;;;;5036098;28;20901;-83
2024/03/02 00:55:56;;;;;;;34.70;22.03;;;;;;;;;;5035775;28;20417;-82
2024/03/02 00:58:22;;;;;;;32.60;20.43;;;;;;;;;;5036009;28;20832;-85
2024/03/02 01:00:48;;;;;;;33.93;21.50;;;;;;;;;;5035710;28;20426;-80
2024/03/02 01:03:13;;;;;;;37.17;21.80;;;;;;;;;;5035389;28;20461;-82
2024/03/02 01:05:43;;;;;;;36.27;19.57;;;;;;;;;;5035952;28;20538;-82
2024/03/02 01:08:09;;;;;;;32.13;20.13;;;;;;;;;;5035744;28;20418;-81
2024/03/02 01:10:35;;;;;;;35.57;22.53;;;;;;;;;;5034302;28;20424;-81
2024/03/02 01:13:01;;;;;;;35.17;22.70;;;;;;;;;;5034123;28;20422;-86
2024/03/02 01:15:27;;;;;;;32.17;20.40;;;;;;;;;;5034554;28;20929;-82
2024/03/02 01:17:53;;;;;;;30.90;21.40;;;;;;;;;;5033973;28;20469;-82
2024/03/02 01:20:19;;;;;;;33.33;18.90;;;;;;;;;;5033355;28;20185;-80
2024/03/02 01:22:45;;;;;;;33.47;21.27;;;;;;;;;;5029168;28;20437;-84
2024/03/02 01:25:11;;;;;;;38.10;21.87;;;;;;;;;;5033453;28;20431;-84
2024/03/02 01:27:37;;;;;;;32.67;20.33;;;;;;;;;;5031986;28;20429;-84
2024/03/02 01:30:03;;;;;;;33.87;22.43;;;;;;;;;;5033383;28;20425;-82
2024/03/02 01:32:29;;;;;;;36.03;20.93;;;;;;;;;;5034277;28;20419;-83
2024/03/02 01:34:56;;;;;;;36.60;22.60;;;;;;;;;;5034012;28;20417;-82
2024/03/02 01:37:22;;;;;;;32.03;21.90;;;;;;;;;;5033697;28;20833;-85
2024/03/02 01:39:47;;;;;;;32.17;20.93;;;;;;;;;;5034954;28;20414;-84
2024/03/02 01:42:13;;;;;;;35.33;21.40;;;;;;;;;;5035235;28;20749;-82
2024/03/02 01:44:40;;;;;;;36.03;24.03;;;;;;;;;;5035511;28;20638;-84
2024/03/02 01:47:06;;;;;;;32.13;20.43;;;;;;;;;;5033802;28;20413;-81
2024/03/02 01:49:34;;;;;;;36.00;21.90;;;;;;;;;;5033871;28;20417;-79
2024/03/02 01:52:00;;;;;;;38.43;21.30;;;;;;;;;;5034380;28;20410;-81
2024/03/02 01:54:26;;;;;;;33.60;20.43;;;;;;;;;;5034963;28;20898;-79
2024/03/02 01:56:52;;;;;;;35.77;21.43;;;;;;;;;;5028407;28;20430;-81
2024/03/02 01:59:18;;;;;;;37.13;23.13;;;;;;;;;;5035495;28;20496;-79
2024/03/02 02:01:43;;;;;;;38.77;24.00;;;;;;;;;;5031627;28;20433;-80
2024/03/02 02:04:09;;;;;;;32.07;20.90;;;;;;;;;;5025531;28;20465;-80
2024/03/02 02:06:35;;;;;;;39.17;22.97;;;;;;;;;;5034585;28;20407;-81
2024/03/02 02:09:01;;;;;;;34.63;22.07;;;;;;;;;;5034543;28;20448;-79
2024/03/02 02:11:27;;;;;;;35.63;22.03;;;;;;;;;;5033842;28;20460;-83
2024/03/02 02:13:55;;;;;;;33.30;21.67;;;;;;;;;;5034560;28;20430;-84
2024/03/02 02:16:21;;;;;;;31.67;19.03;;;;;;;;;;5034490;28;20927;-82
2024/03/02 02:18:47;;;;;;;33.07;20.27;;;;;;;;;;5033972;28;20473;-83
2024/03/02 02:21:13;;;;;;;34.07;20.93;;;;;;;;;;5028052;28;20430;-84
2024/03/02 02:23:39;;;;;;;34.27;19.27;;;;;;;;;;5033084;28;20429;-88
2024/03/02 02:26:05;;;;;;;34.20;19.90;;;;;;;;;;5034671;28;20409;-82
2024/03/02 02:28:31;;;;;;;29.40;20.27;;;;;;;;;;5034404;28;20414;-84
2024/03/02 02:30:57;;;;;;;40.53;22.43;;;;;;;;;;5034675;28;20471;-85
2024/03/02 02:33:23;;;;;;;43.77;23.90;;;;;;;;;;5033872;28;20414;-85
2024/03/02 02:35:49;;;;;;;38.67;23.50;;;;;;;;;;5033818;28;20409;-82
2024/03/02 02:38:15;;;;;;;32.10;21.50;;;;;;;;;;5033887;28;21164;-84
2024/03/02 02:40:41;;;;;;;30.80;19.67;;;;;;;;;;5034101;28;20773;-81
2024/03/02 02:43:07;;;;;;;41.17;22.83;;;;;;;;;;5033732;28;20393;-80
2024/03/02 02:45:33;;;;;;;40.60;24.17;;;;;;;;;;5033929;28;20398;-82
2024/03/02 02:48:01;;;;;;;38.37;24.43;;;;;;;;;;5033517;28;20416;-85
2024/03/02 02:50:26;;;;;;;36.73;22.40;;;;;;;;;;5033769;28;20414;-84
2024/03/02 02:52:52;;;;;;;38.27;23.23;;;;;;;;;;5033609;28;20815;-82
2024/03/02 02:55:18;;;;;;;41.57;22.37;;;;;;;;;;5033792;28;20425;-82
2024/03/02 02:57:45;;;;;;;33.07;22.70;;;;;;;;;;5033794;28;20456;-84
2024/03/02 03:00:14;;;;;;;38.03;21.77;;;;;;;;;;5033734;28;20458;-83
2024/03/02 03:02:41;;;;;;;29.87;19.60;;;;;;;;;;5033083;28;20404;-83
2024/03/02 03:05:07;;;;;;;35.57;20.40;;;;;;;;;;5033632;28;20462;-82
2024/03/02 03:07:37;;;;;;;35.63;21.90;;;;;;;;;;5033614;28;20405;-82
2024/03/02 03:10:04;;;;;;;34.77;22.17;;;;;;;;;;5033404;28;20416;-82
2024/03/02 03:12:31;;;;;;;36.97;22.37;;;;;;;;;;5033452;28;20409;-82
2024/03/02 03:14:57;;;;;;;38.47;21.00;;;;;;;;;;5033309;28;20500;-82
2024/03/02 03:17:23;;;;;;;35.97;21.10;;;;;;;;;;5031505;28;20601;-82
2024/03/02 03:19:49;;;;;;;32.40;20.70;;;;;;;;;;5033159;28;20424;-83
2024/03/02 03:22:15;;;;;;;37.43;21.43;;;;;;;;;;5033139;28;20413;-81
2024/03/02 03:24:40;;;;;;;33.80;21.70;;;;;;;;;;5033278;28;20423;-82
2024/03/02 03:27:07;;;;;;;37.33;23.70;;;;;;;;;;5033083;28;20463;-82
2024/03/02 03:29:33;;;;;;;41.13;24.93;;;;;;;;;;5033145;28;20421;-85
2024/03/02 03:31:59;;;;;;;35.27;21.27;;;;;;;;;;5032716;28;20417;-83
2024/03/02 03:34:25;;;;;;;34.20;21.70;;;;;;;;;;5028316;28;20555;-82
2024/03/02 03:36:51;;;;;;;31.63;20.80;;;;;;;;;;5013094;28;20778;-82
2024/03/02 03:39:17;;;;;;;34.97;22.47;;;;;;;;;;5013192;28;20477;-84
2024/03/02 03:41:43;;;;;;;33.00;21.10;;;;;;;;;;5013134;28;20419;-82
2024/03/02 03:44:09;;;;;;;33.43;22.20;;;;;;;;;;5013285;28;20908;-81
2024/03/02 03:46:35;;;;;;;39.90;24.53;;;;;;;;;;5013221;28;20418;-84
2024/03/02 03:49:01;;;;;;;36.87;23.27;;;;;;;;;;5012846;28;20417;-81
2024/03/02 03:51:27;;;;;;;33.60;20.80;;;;;;;;;;5013156;28;20772;-82
2024/03/02 03:53:53;;;;;;;35.30;21.37;;;;;;;;;;5013013;28;20420;-82
2024/03/02 03:56:18;;;;;;;31.20;20.10;;;;;;;;;;5012715;28;20436;-81
2024/03/02 03:58:44;;;;;;;37.50;22.70;;;;;;;;;;5012835;28;20824;-82
2024/03/02 04:01:10;;;;;;;34.77;21.80;;;;;;;;;;5012961;28;20420;-81
2024/03/02 04:03:36;;;;;;;36.93;22.00;;;;;;;;;;5011158;28;20246;-82
2024/03/02 04:06:02;;;;;;;35.10;20.43;;;;;;;;;;5012911;28;20414;-82
2024/03/02 04:08:28;;;;;;;34.70;19.87;;;;;;;;;;5012819;28;20520;-82
2024/03/02 04:10:54;;;;;;;32.83;20.50;;;;;;;;;;5011269;28;20468;-81
2024/03/02 04:13:20;;;;;;;32.63;22.03;;;;;;;;;;5012823;28;20636;-82
2024/03/02 04:15:46;;;;;;;30.70;19.43;;;;;;;;;;5012807;28;20209;-81
2024/03/02 04:18:12;;;;;;;32.70;20.30;;;;;;;;;;5012444;28;20461;-81
2024/03/02 04:20:38;;;;;;;37.87;22.03;;;;;;;;;;5012808;28;20908;-82
2024/03/02 04:23:04;;;;;;;34.97;20.50;;;;;;;;;;5012784;28;20852;-84
2024/03/02 04:25:29;;;;;;;29.77;20.37;;;;;;;;;;5012645;28;20179;-84
2024/03/02 04:27:55;;;;;;;34.17;21.07;;;;;;;;;;5017152;28;20412;-82
2024/03/02 04:30:21;;;;;;;36.90;22.60;;;;;;;;;;5012631;28;20430;-85
2024/03/02 04:32:48;;;;;;;31.27;18.67;;;;;;;;;;5012210;28;20412;-82
2024/03/02 04:35:14;;;;;;;33.83;21.53;;;;;;;;;;5012739;28;20405;-82
2024/03/02 04:37:40;;;;;;;31.77;20.20;;;;;;;;;;5012587;28;20474;-83
2024/03/02 04:40:10;;;;;;;32.80;18.57;;;;;;;;;;5011359;28;20452;-82
2024/03/02 04:42:36;;;;;;;34.00;19.90;;;;;;;;;;5011305;28;20438;-84
2024/03/02 04:45:02;;;;;;;38.33;20.77;;;;;;;;;;5012586;28;20413;-82
2024/03/02 04:47:28;;;;;;;35.37;19.50;;;;;;;;;;5011979;28;20509;-84
2024/03/02 04:49:54;;;;;;;31.70;18.90;;;;;;;;;;5012594;28;21008;-83
2024/03/02 04:52:20;;;;;;;28.77;19.90;;;;;;;;;;5012272;28;20422;-82
2024/03/02 04:57:31;;;;;;;33.50;19.37;;;;;;;;;;5012495;28;20988;-81
2024/03/02 04:59:57;;;;;;;32.17;19.70;;;;;;;;;;5012430;28;20416;-81
2024/03/02 05:02:23;;;;;;;34.63;21.67;;;;;;;;;;5012076;28;20241;-82
2024/03/02 05:04:49;;;;;;;35.57;21.70;;;;;;;;;;5012102;28;20970;-81
2024/03/02 05:07:15;;;;;;;37.93;20.40;;;;;;;;;;5021533;28;21973;-81
2024/03/02 05:09:41;;;;;;;30.87;19.53;;;;;;;;;;5031879;28;20456;-80
2024/03/02 05:14:51;;;;;;;35.53;21.00;;;;;;;;;;5031272;28;21019;-79
2024/03/02 05:17:17;;;;;;;28.30;18.03;;;;;;;;;;5026911;28;20523;-82
2024/03/02 05:19:43;;;;;;;32.40;22.07;;;;;;;;;;5032034;28;20970;-87
2024/03/02 05:22:09;;;;;;;30.70;19.67;;;;;;;;;;5031909;28;20470;-84
2024/03/02 05:24:35;;;;;;;29.33;20.20;;;;;;;;;;5034315;28;20412;-85
2024/03/02 05:27:01;;;;;;;36.67;20.60;;;;;;;;;;5033830;28;20940;-85
2024/03/02 05:29:27;;;;;;;33.43;20.03;;;;;;;;;;5035483;28;20481;-85
2024/03/02 05:31:53;;;;;;;31.53;20.63;;;;;;;;;;5035165;28;20424;-85
2024/03/02 05:34:18;;;;;;;37.17;20.87;;;;;;;;;;5035502;28;20896;-84
2024/03/02 05:36:44;;;;;;;33.10;20.40;;;;;;;;;;5035299;28;20168;-84
2024/03/02 05:39:10;;;;;;;36.50;20.70;;;;;;;;;;5033960;28;20869;-83
2024/03/02 05:41:37;;;;;;;32.90;19.87;;;;;;;;;;5035257;28;20420;-83
2024/03/02 05:44:03;;;;;;;34.33;20.33;;;;;;;;;;5035290;28;20420;-83
2024/03/02 05:46:29;;;;;;;30.00;21.10;;;;;;;;;;5034843;28;20416;-83
2024/03/02 05:48:55;;;;;;;31.43;20.77;;;;;;;;;;5034666;28;20415;-83
2024/03/02 05:51:21;;;;;;;26.67;18.70;;;;;;;;;;5034853;28;20439;-82
2024/03/02 05:53:47;;;;;;;31.00;20.20;;;;;;;;;;5035039;28;20462;-83
2024/03/02 05:56:13;;;;;;;34.50;20.70;;;;;;;;;;5035014;28;20894;-82
2024/03/02 05:59:07;;;;;;;32.87;20.23;;;;;;;;;;5034764;28;20488;-83
2024/03/02 06:01:33;;;;;;;34.07;19.50;;;;;;;;;;5034604;28;20460;-82
2024/03/02 06:03:59;;;;;;;28.47;18.60;;;;;;;;;;5034473;28;20985;-83
2024/03/02 06:06:25;;;;;;;30.73;20.50;;;;;;;;;;5034756;28;20405;-83
2024/03/02 06:08:51;;;;;;;32.67;20.30;;;;;;;;;;5034509;28;20459;-82
2024/03/02 06:11:18;;;;;;;32.13;20.10;;;;;;;;;;5034708;28;20500;-83
2024/03/02 06:13:44;;;;;;;27.00;18.77;;;;;;;;;;5034709;28;20422;-82
2024/03/02 06:16:09;;;;;;;29.60;17.87;;;;;;;;;;5033391;28;20411;-83
2024/03/02 06:18:35;;;;;;;35.30;21.50;;;;;;;;;;5032780;28;21038;-83
2024/03/02 06:21:01;;;;;;;30.57;19.40;;;;;;;;;;5033371;28;20519;-83
2024/03/02 06:23:27;;;;;;;28.63;18.00;;;;;;;;;;5034344;28;20502;-83
2024/03/02 06:25:53;;;;;;;32.80;20.97;;;;;;;;;;5034380;28;20413;-83
2024/03/02 06:28:20;;;;;;;30.43;18.17;;;;;;;;;;5034358;28;20901;-83
2024/03/02 06:30:46;;;;;;;33.70;19.87;;;;;;;;;;5034283;28;20904;-82
2024/03/02 06:33:11;;;;;;;29.60;19.00;;;;;;;;;;5033696;28;20457;-83
2024/03/02 06:35:37;;;;;;;32.53;19.83;;;;;;;;;;5033855;28;20551;-82
2024/03/02 06:38:03;;;;;;;34.20;19.60;;;;;;;;;;5033541;28;20476;-84
2024/03/02 06:40:29;;;;;;;33.70;19.20;;;;;;;;;;5034113;28;20409;-83
2024/03/02 06:42:55;;;;;;;41.40;21.20;;;;;;;;;;5033974;28;20423;-84
2024/03/02 06:45:21;;;;;;;31.17;20.67;;;;;;;;;;5033969;28;20521;-82
2024/03/02 06:47:47;;;;;;;32.77;20.10;;;;;;;;;;5033479;28;20417;-83
2024/03/02 06:50:13;;;;;;;30.77;20.43;;;;;;;;;;5033970;28;20402;-81
2024/03/02 06:52:39;;;;;;;30.77;19.93;;;;;;;;;;5033718;28;20511;-81
2024/03/02 06:55:05;;;;;;;32.30;21.50;;;;;;;;;;5033865;28;20474;-81
2024/03/02 06:57:31;;;;;;;31.47;19.93;;;;;;;;;;5032213;28;20498;-81
2024/03/02 06:59:58;;;;;;;32.23;19.67;;;;;;;;;;5033802;28;20829;-81
2024/03/02 07:02:26;;;;;;;33.00;19.90;;;;;;;;;;5033452;28;20423;-81
2024/03/02 07:04:52;;;;;;;32.80;21.33;;;;;;;;;;5033593;28;20453;-80
2024/03/02 07:07:18;;;;;;;31.90;19.93;;;;;;;;;;5032243;28;20500;-80
2024/03/02 07:09:44;;;;;;;32.40;20.87;;;;;;;;;;5033870;28;20855;-80
2024/03/02 07:12:10;;;;;;;31.90;20.33;;;;;;;;;;5035110;28;20417;-80
2024/03/02 07:17:20;;;;;;;32.77;20.60;;;;;;;;;;5033011;28;20987;-80
2024/03/02 07:19:47;;;;;;;30.63;20.20;;;;;;;;;;5033409;28;20514;-80
2024/03/02 07:22:13;;;;;;;32.93;20.70;;;;;;;;;;5033017;28;20497;-80
2024/03/02 07:24:42;;;;;;;31.97;21.57;;;;;;;;;;5031997;28;21036;-80
2024/03/02 07:27:09;;;;;;;31.57;19.63;;;;;;;;;;5033161;28;20230;-80
2024/03/02 07:29:35;;;;;;;33.83;20.73;;;;;;;;;;5031819;28;20510;-79
2024/03/02 07:32:01;;;;;;;31.73;20.50;;;;;;;;;;5032824;28;20451;-80
2024/03/02 07:34:26;;;;;;;39.17;21.57;;;;;;;;;;5033037;28;20173;-81
2024/03/02 07:36:53;;;;;;;35.33;21.60;;;;;;;;;;5032959;28;20432;-81
2024/03/02 07:39:19;;;;;;;33.07;20.70;;;;;;;;;;5033028;28;20878;-81
2024/03/02 07:41:45;;;;;;;31.00;21.23;;;;;;;;;;5032798;28;20406;-81
2024/03/02 07:44:14;;;;;;;33.27;19.87;;;;;;;;;;5031671;28;20432;-82
2024/03/02 07:46:40;;;;;;;33.10;21.97;;;;;;;;;;5030412;28;20456;-80
2024/03/02 07:49:06;;;;;;;40.97;22.97;;;;;;;;;;5032834;28;21000;-83
2024/03/02 07:51:32;;;;;;;32.40;21.10;;;;;;;;;;5033004;28;20419;-84
2024/03/02 07:53:58;;;;;;;25.70;13.27;;;;;;;;;;5031388;28;20477;-83
2024/03/02 07:56:24;;;;;;;32.00;20.93;;;;;;;;;;5030825;28;20814;-82
2024/03/02 07:58:50;;;;;;;35.00;22.10;;;;;;;;;;5032324;28;20508;-83
2024/03/02 08:01:17;;;;;;;31.37;20.20;;;;;;;;;;5032385;28;20496;-84
2024/03/02 08:03:43;;;;;;;36.93;22.30;;;;;;;;;;5023175;28;20473;-83
2024/03/02 08:06:08;;;;;;;35.27;18.77;;;;;;;;;;5032708;28;20413;-84
2024/03/02 08:08:34;;;;;;;27.47;19.30;;;;;;;;;;5031507;28;21109;-82
2024/03/02 08:11:00;;;;;;;31.27;20.60;;;;;;;;;;5015375;28;20516;-83
2024/03/02 08:13:26;;;;;;;31.97;19.87;;;;;;;;;;5012816;28;20418;-83
2024/03/02 08:15:52;;;;;;;28.00;19.03;;;;;;;;;;5012859;28;20435;-83
2024/03/02 08:18:18;;;;;;;25.57;18.40;;;;;;;;;;5016745;28;20218;-83
2024/03/02 08:20:44;;;;;;;28.03;19.20;;;;;;;;;;5012422;28;20477;-83
2024/03/02 08:23:10;;;;;;;24.10;16.90;;;;;;;;;;5010930;28;20799;-84
2024/03/02 08:25:37;;;;;;;30.10;18.90;;;;;;;;;;5020944;28;20422;-83
2024/03/02 08:28:03;;;;;;;28.83;18.50;;;;;;;;;;5032432;28;20435;-82
2024/03/02 08:30:29;;;;;;;31.77;19.37;;;;;;;;;;5032547;28;20417;-82
2024/03/02 08:32:55;;;;;;;31.37;20.17;;;;;;;;;;5030525;28;20438;-82
2024/03/02 08:35:22;;;;;;;36.50;21.37;;;;;;;;;;5032364;28;20496;-82
2024/03/02 08:37:48;;;;;;;27.03;19.83;;;;;;;;;;5032023;28;20462;-82
2024/03/02 08:40:14;;;;;;;33.47;21.70;;;;;;;;;;5032550;28;20762;-82
2024/03/02 08:42:40;;;;;;;31.20;19.97;;;;;;;;;;5031017;28;20497;-81
2024/03/02 08:45:07;;;;;;;25.53;18.73;;;;;;;;;;5031329;28;20469;-82
2024/03/02 08:47:32;;;;;;;31.43;19.30;;;;;;;;;;5028411;28;20438;-82
2024/03/02 08:49:59;;;;;;;27.20;19.80;;;;;;;;;;5031972;28;20424;-83
2024/03/02 08:52:25;;;;;;;32.90;19.10;;;;;;;;;;5032662;28;20415;-82
2024/03/02 08:54:51;;;;;;;28.50;19.30;;;;;;;;;;5032520;28;20425;-82
2024/03/02 08:57:17;;;;;;;27.87;19.20;;;;;;;;;;5033076;28;20417;-82
2024/03/02 08:59:43;;;;;;;27.83;17.67;;;;;;;;;;5036284;28;20434;-81
2024/03/02 09:02:09;;;;;;;29.27;18.13;;;;;;;;;;5035995;28;20418;-82
2024/03/02 09:04:35;;;;;;;29.03;19.53;;;;;;;;;;5036115;28;20489;-82
2024/03/02 09:07:01;;;;;;;32.20;20.83;;;;;;;;;;5036017;28;20176;-82
2024/03/02 09:09:27;;;;;;;28.13;20.73;;;;;;;;;;5036232;28;20413;-82
2024/03/02 09:11:54;;;;;;;28.93;20.13;;;;;;;;;;5036093;28;20540;-81
2024/03/02 09:14:20;;;;;;;26.37;17.40;;;;;;;;;;5032652;28;20433;-82
2024/03/02 09:16:46;;;;;;;24.77;17.07;;;;;;;;;;5035245;28;20414;-85
2024/03/02 09:19:12;;;;;;;29.40;19.80;;;;;;;;;;5034532;28;20478;-82
2024/03/02 09:21:38;;;;;;;25.37;18.23;;;;;;;;;;5034558;28;20181;-80
2024/03/02 09:24:06;;;;;;;21.37;16.70;;;;;;;;;;5027778;28;20429;-80
2024/03/02 09:26:32;;;;;;;22.60;17.07;;;;;;;;;;5015731;28;20410;-81
2024/03/02 09:28:58;;;;;;;23.00;16.30;;;;;;;;;;5015771;28;20426;-81
2024/03/02 09:31:24;;;;;;;19.17;14.43;;;;;;;;;;5030191;28;20433;-82
2024/03/02 09:33:50;;;;;;;21.73;16.07;;;;;;;;;;5013639;28;20469;-80
2024/03/02 09:36:20;;;;;;;18.37;13.50;;;;;;;;;;5018863;28;20509;-80
2024/03/02 09:38:46;;;;;;;19.93;15.30;;;;;;;;;;5033940;28;20688;-79
2024/03/02 09:41:12;;;;;;;21.33;15.33;;;;;;;;;;5035227;28;20439;-79
2024/03/02 09:43:38;;;;;;;20.80;16.77;;;;;;;;;;5034985;28;20507;-79
2024/03/02 09:46:04;;;;;;;20.47;15.50;;;;;;;;;;5034757;28;20426;-79
2024/03/02 09:48:30;;;;;;;20.07;14.97;;;;;;;;;;5035157;28;20918;-84
2024/03/02 09:50:56;;;;;;;15.30;12.80;;;;;;;;;;5034967;28;20451;-84
2024/03/02 09:53:23;;;;;;;19.53;13.93;;;;;;;;;;5035265;28;20499;-84
2024/03/02 09:55:49;;;;;;;17.80;13.60;;;;;;;;;;5034829;28;20413;-81
2024/03/02 09:58:15;;;;;;;17.93;14.07;;;;;;;;;;5034745;28;20487;-81
2024/03/02 10:00:40;;;;;;;16.20;13.43;;;;;;;;;;5033540;28;20468;-82
2024/03/02 10:03:12;;;;;;;17.60;13.00;;;;;;;;;;5033994;28;20713;-82
2024/03/02 10:05:38;;;;;;;15.07;12.53;;;;;;;;;;5033236;28;20191;-81
2024/03/02 10:08:04;;;;;;;14.83;12.47;;;;;;;;;;5033400;28;20416;-81
2024/03/02 10:10:39;;;;;;;15.30;12.50;;;;;;;;;;5034017;28;20185;-81
2024/03/02 10:13:05;;;;;;;16.20;12.00;;;;;;;;;;5034749;28;20407;-82
2024/03/02 10:15:31;;;;;;;12.00;10.43;;;;;;;;;;5034627;28;20421;-82
2024/03/02 10:17:57;;;;;;;15.83;12.30;;;;;;;;;;5034014;28;20471;-82
2024/03/02 10:20:24;;;;;;;14.50;12.50;;;;;;;;;;5034525;28;20217;-80
2024/03/02 10:22:50;;;;;;;13.67;12.23;;;;;;;;;;5034470;28;20963;-82
2024/03/02 10:25:34;;;;;;;12.47;9.53;;;;;;;;;;5034235;28;20475;-82
2024/03/02 10:28:00;;;;;;;11.57;10.37;;;;;;;;;;5034223;28;20173;-81
2024/03/02 10:30:27;;;;;;;11.13;9.93;;;;;;;;;;5034239;28;20396;-82
2024/03/02 10:32:56;;;;;;;12.87;10.40;;;;;;;;;;5033891;28;20804;-80
2024/03/02 10:35:25;;;;;;;13.13;10.10;;;;;;;;;;5027495;28;20424;-81
2024/03/02 10:37:52;;;;;;;12.37;10.90;;;;;;;;;;5012947;28;20472;-81
2024/03/02 10:40:18;;;;;;;14.70;10.57;;;;;;;;;;5029174;28;20491;-83
2024/03/02 10:42:45;;;;;;;12.67;10.20;;;;;;;;;;5014194;28;20413;-80
2024/03/02 10:45:12;;;;;;;12.30;9.30;;;;;;;;;;5014170;28;20418;-79
2024/03/02 10:47:38;;;;;;;14.03;9.93;;;;;;;;;;5013957;28;20417;-81
2024/03/02 10:50:08;;;;;;;11.63;10.07;;;;;;;;;;5014085;28;20422;-82
2024/03/02 10:52:34;;;;;;;11.13;10.00;;;;;;;;;;5023469;28;20420;-81
2024/03/02 10:55:00;;;;;;;11.20;8.77;;;;;;;;;;5034169;28;20741;-81
2024/03/02 10:57:27;;;;;;;13.53;10.00;;;;;;;;;;5033565;28;20413;-82
2024/03/02 10:59:53;;;;;;;13.10;8.93;;;;;;;;;;5033852;28;20182;-81
2024/03/02 11:02:22;;;;;;;11.03;8.27;;;;;;;;;;5033285;28;20421;-80
2024/03/02 11:04:50;;;;;;;15.60;9.60;;;;;;;;;;5033555;28;20479;-81
2024/03/02 11:07:17;;;;;;;12.03;9.33;;;;;;;;;;5033539;28;20457;-81
2024/03/02 11:09:46;;;;;;;9.33;7.87;;;;;;;;;;5033498;28;20899;-81
2024/03/02 11:12:29;;;;;;;12.37;8.70;;;;;;;;;;5033908;28;20516;-80
2024/03/02 11:14:56;;;;;;;9.00;7.50;;;;;;;;;;5033638;28;20778;-83
2024/03/02 11:17:22;;;;;;;11.53;9.50;;;;;;;;;;5033460;28;20436;-81
2024/03/02 11:19:51;;;;;;;12.20;9.30;;;;;;;;;;5034403;28;20421;-86
2024/03/02 11:22:17;;;;;;;10.13;7.90;;;;;;;;;;5033249;28;20537;-83
2024/03/02 11:24:49;;;;;;;11.07;8.80;;;;;;;;;;5032487;28;20429;-82
2024/03/02 11:27:35;;;;;;;9.50;8.30;;;;;;;;;;5033738;28;20412;-85
2024/03/02 11:30:01;;;;;;;12.33;9.77;;;;;;;;;;5032227;28;20417;-85
2024/03/02 11:32:27;;;;;;;13.80;8.40;;;;;;;;;;5033191;28;20422;-85
2024/03/02 11:34:53;;;;;;;13.77;8.73;;;;;;;;;;5034131;28;20417;-87
2024/03/02 11:37:23;;;;;;;12.27;8.43;;;;;;;;;;5032273;28;20177;-87
2024/03/02 11:39:52;;;;;;;14.07;9.63;;;;;;;;;;5033121;28;20420;-87
2024/03/02 11:42:18;;;;;;;11.90;10.03;;;;;;;;;;5032566;28;20408;-87
2024/03/02 11:44:46;;;;;;;12.90;9.63;;;;;;;;;;5032578;28;20759;-86
2024/03/02 11:47:16;;;;;;;12.30;9.90;;;;;;;;;;5031964;28;20945;-85
2024/03/02 11:49:46;;;;;;;13.60;8.97;;;;;;;;;;5032394;28;20850;-87
2024/03/02 11:52:17;;;;;;;13.87;9.77;;;;;;;;;;5032359;28;20422;-85
2024/03/02 11:54:46;;;;;;;16.57;10.70;;;;;;;;;;5033823;28;20881;-86
2024/03/02 11:57:14;;;;;;;14.40;10.10;;;;;;;;;;5032274;28;20516;-85
2024/03/02 11:59:40;;;;;;;20.57;13.53;;;;;;;;;;5032405;28;20476;-87
2024/03/02 12:02:06;;;;;;;14.87;11.23;;;;;;;;;;5032238;28;20441;-86
2024/03/02 12:04:33;;;;;;;19.53;13.93;;;;;;;;;;5032240;28;20905;-86
2024/03/02 12:07:00;;;;;;;14.87;11.10;;;;;;;;;;5032187;28;20793;-86
2024/03/02 12:09:26;;;;;;;13.20;11.07;;;;;;;;;;5033618;28;20419;-86
2024/03/02 12:12:04;;;;;;;11.47;8.27;;;;;;;;;;5032371;28;20413;-86
2024/03/02 12:14:31;;;;;;;11.93;8.60;;;;;;;;;;5032319;28;20926;-86
2024/03/02 12:16:58;;;;;;;11.00;9.50;;;;;;;;;;5033174;28;20843;-86
2024/03/02 12:19:25;;;;;;;11.53;9.20;;;;;;;;;;5032193;28;20990;-87
2024/03/02 12:21:51;;;;;;;11.93;8.73;;;;;;;;;;5033505;28;20442;-86
2024/03/02 12:24:16;;;;;;;11.93;9.27;;;;;;;;;;5032231;28;20923;-86
2024/03/02 12:26:42;;;;;;;12.17;8.93;;;;;;;;;;5033534;28;20407;-86
2024/03/02 12:29:08;;;;;;;10.93;8.37;;;;;;;;;;5033317;28;20415;-87
2024/03/02 12:31:35;;;;;;;13.87;9.33;;;;;;;;;;5033019;28;20506;-89
2024/03/02 12:34:01;;;;;;;11.47;9.07;;;;;;;;;;5036666;28;20222;-88
2024/03/02 12:36:27;;;;;;;12.20;8.43;;;;;;;;;;5036214;28;20418;-88
2024/03/02 12:38:54;;;;;;;9.90;7.40;;;;;;;;;;5036056;28;20833;-87
2024/03/02 12:41:20;;;;;;;13.57;8.77;;;;;;;;;;5035833;28;20423;-88
2024/03/02 12:43:46;;;;;;;12.30;9.80;;;;;;;;;;5037074;28;20953;-87
2024/03/02 12:46:12;;;;;;;10.23;8.53;;;;;;;;;;5035666;28;20411;-87
2024/03/02 12:48:40;;;;;;;13.70;10.20;;;;;;;;;;5035892;28;20960;-87
2024/03/02 12:51:06;;;;;;;14.90;9.03;;;;;;;;;;5036987;28;20172;-88
2024/03/02 12:53:32;;;;;;;14.47;8.90;;;;;;;;;;5035625;28;20942;-86
2024/03/02 12:55:59;;;;;;;14.17;10.63;;;;;;;;;;5037025;28;20420;-86
2024/03/02 12:58:26;;;;;;;16.50;8.77;;;;;;;;;;5036855;28;20826;-87
2024/03/02 13:01:05;;;;;;;11.53;9.33;;;;;;;;;;5036323;28;20955;-86
2024/03/02 13:03:31;;;;;;;14.47;9.77;;;;;;;;;;5036625;28;20467;-88
2024/03/02 13:05:57;;;;;;;14.07;9.90;;;;;;;;;;5037014;28;20410;-89
2024/03/02 13:08:23;;;;;;;12.27;8.90;;;;;;;;;;5035538;28;20624;-88
2024/03/02 13:10:49;;;;;;;11.97;8.53;;;;;;;;;;5035750;28;20176;-88
2024/03/02 13:13:15;;;;;;;11.33;8.63;;;;;;;;;;5035873;28;20482;-89
2024/03/02 13:15:41;;;;;;;13.73;9.27;;;;;;;;;;5035326;28;20454;-87
2024/03/02 13:18:09;;;;;;;13.07;9.53;;;;;;;;;;5036698;28;20460;-88
2024/03/02 13:20:35;;;;;;;12.97;8.57;;;;;;;;;;5035744;28;20522;-88
2024/03/02 13:23:01;;;;;;;12.40;8.53;;;;;;;;;;5036794;28;20819;-89
2024/03/02 13:25:27;;;;;;;10.90;9.43;;;;;;;;;;5035514;28;20530;-87
2024/03/02 13:27:53;;;;;;;12.93;8.90;;;;;;;;;;5035570;28;20184;-88
2024/03/02 13:30:19;;;;;;;13.57;8.73;;;;;;;;;;5035009;28;20628;-87
2024/03/02 13:32:45;;;;;;;10.60;7.83;;;;;;;;;;5036380;28;20173;-87
2024/03/02 13:35:11;;;;;;;11.90;8.70;;;;;;;;;;5035156;28;20180;-88
2024/03/02 13:37:37;;;;;;;11.40;6.73;;;;;;;;;;5035025;28;20417;-87
2024/03/02 13:40:04;;;;;;;13.30;8.80;;;;;;;;;;5036257;28;20811;-87
2024/03/02 13:42:30;;;;;;;13.50;9.83;;;;;;;;;;5035154;28;20467;-88
2024/03/02 13:44:56;;;;;;;11.80;9.00;;;;;;;;;;5033998;28;20427;-89
2024/03/02 13:47:22;;;;;;;10.87;8.37;;;;;;;;;;5035927;28;20425;-88
2024/03/02 13:49:48;;;;;;;11.20;8.50;;;;;;;;;;5035000;28;21011;-87
2024/03/02 13:52:15;;;;;;;12.60;8.70;;;;;;;;;;5035074;28;20795;-88
2024/03/02 13:54:41;;;;;;;12.90;9.73;;;;;;;;;;5035024;28;20521;-87
2024/03/02 13:57:08;;;;;;;10.17;8.40;;;;;;;;;;5036100;28;20751;-89
2024/03/02 13:59:37;;;;;;;11.73;8.33;;;;;;;;;;5036005;28;20470;-90
2024/03/02 14:02:04;;;;;;;12.60;8.27;;;;;;;;;;5035767;28;20805;-89
2024/03/02 14:04:31;;;;;;;10.10;7.33;;;;;;;;;;5034443;28;20516;-86
2024/03/02 14:06:57;;;;;;;10.97;8.20;;;;;;;;;;5035913;28;20413;-88
2024/03/02 14:09:23;;;;;;;14.63;9.00;;;;;;;;;;5034483;28;20422;-88
2024/03/02 14:11:51;;;;;;;12.67;8.37;;;;;;;;;;5034559;28;20419;-89
2024/03/02 14:14:17;;;;;;;10.00;7.33;;;;;;;;;;5034881;28;20778;-88
2024/03/02 14:16:42;;;;;;;9.77;6.57;;;;;;;;;;5034256;28;20419;-88
2024/03/02 14:19:09;;;;;;;11.37;6.83;;;;;;;;;;5035467;28;20214;-87
2024/03/02 14:21:35;;;;;;;10.03;6.30;;;;;;;;;;5034297;28;20511;-89
2024/03/02 14:24:01;;;;;;;10.60;6.93;;;;;;;;;;5035630;28;20417;-89
2024/03/02 14:26:28;;;;;;;9.90;6.37;;;;;;;;;;5035577;28;20823;-88